Flight Track Log - Related Links

Times and Time Zones

All times are in EDT time to prevent confusion due to time zone crossing. See the UAL4696 flight status page for this flight to view local times or setup timezone preferences in your user account.

Time Position Orientation Groundspeed Altitude Reporting Facility
EDT Latitude Longitude Course Direction KTS MPH feet Rate Location/Type
Sun 12:27:10 PM 41.4236 -81.8319 242° Southwest 179 206 1,700  Level Cleveland Center
Sun 12:27:53 PM 41.4592 -81.8328 359° North 202 232 2,900 2,230 Climbing Cleveland Center
Sun 12:29:03 PM 41.5044 -81.8836 320° Northwest 268 308 5,900 2,677 Climbing Cleveland Center
Sun 12:30:00 PM 41.2490 -82.3367 248° West  Level FlightAware Approximate
Sun 12:30:03 PM 41.4681 -81.9714 241° Southwest 245 282 8,700  Level Cleveland Center
Sun 12:31:00 PM 41.2122 -82.4595 248° West  Level FlightAware Approximate
Sun 12:31:03 PM 41.4272 -82.0592 238° Southwest 266 306 11,100  Level Cleveland Center
Sun 12:32:00 PM 41.1662 -82.5762 242° Southwest  Level FlightAware Approximate
Sun 12:32:03 PM 41.3800 -82.1550 237° Southwest 297 342 12,800  Level Cleveland Center
Sun 12:33:03 PM 41.3286 -82.2589 237° Southwest 335 386 14,200 1,550 Climbing Cleveland Center
Sun 12:34:03 PM 41.2725 -82.3733 237° Southwest 363 418 15,900 1,600 Climbing Cleveland Center
Sun 12:35:03 PM 41.2167 -82.4850 236° Southwest 369 425 17,400 1,500 Climbing Cleveland Center
Sun 12:36:03 PM 41.1644 -82.6047 240° Southwest 374 430 18,900 1,750 Climbing Cleveland Center
Sun 12:37:03 PM 41.1081 -82.7328 240° Southwest 369 425 20,900 2,050 Climbing Cleveland Center
Sun 12:38:03 PM 41.0869 -82.8558 257° West 359 413 23,000 1,950 Climbing Cleveland Center
Sun 12:39:03 PM 41.0697 -82.9794 260° West 344 396 24,800 1,000 Climbing Cleveland Center
Sun 12:40:03 PM 41.0522 -83.1081 260° West 355 409 25,000 100 Climbing Cleveland Center
Sun 12:41:03 PM 41.0322 -83.2533 260° West 388 447 25,000 700 Level Cleveland Center
Sun 12:42:03 PM 41.0122 -83.3983 260° West 400 460 26,400 1,091 Climbing Cleveland Center
Sun 12:42:53 PM 40.9933 -83.5119 258° West 396 456 27,000 321 Climbing Indianapolis Center
Sun 12:43:55 PM 40.9483 -83.6567 248° West 426 490 27,000 293 Level Indianapolis Center
Sun 12:44:56 PM 40.8922 -83.7969 242° Southwest 431 496 27,600 1,220 Climbing Indianapolis Center
Sun 12:45:58 PM 40.8383 -83.9319 242° Southwest 416 479 29,500 1,790 Climbing Indianapolis Center
Sun 12:47:00 PM 40.7867 -84.0594 242° Southwest 396 456 31,300 1,902 Climbing Indianapolis Center
Sun 12:48:01 PM 40.7381 -84.1783 242° Southwest 374 430 33,400 1,805 Climbing Indianapolis Center
Sun 12:49:03 PM 40.6933 -84.2897 242° Southwest 346 398 35,000 1,016 Climbing Indianapolis Center
Sun 12:50:05 PM 40.6389 -84.4233 242° Southwest 353 406 35,500 484 Climbing Indianapolis Center
Sun 12:51:07 PM 40.5919 -84.5383 242° Southwest 355 409 36,000 242 Climbing Indianapolis Center
Sun 12:52:09 PM 40.5408 -84.6614 241° Southwest 375 432 36,000  Level Indianapolis Center
Sun 12:53:10 PM 40.4875 -84.7900 241° Southwest 394 453 36,000  Level Indianapolis Center
Sun 12:54:12 PM 40.4311 -84.9253 241° Southwest 412 474 36,000  Level Indianapolis Center
Sun 12:55:14 PM 40.3758 -85.0539 241° Southwest 407 468 36,000  Level Indianapolis Center
Sun 12:56:15 PM 40.3236 -85.1822 242° Southwest 401 461 36,000  Level Indianapolis Center
Sun 12:57:17 PM 40.2700 -85.3075 241° Southwest 397 457 36,000  Level Indianapolis Center
Sun 12:58:19 PM 40.2169 -85.4328 241° Southwest 394 453 36,000  Level Indianapolis Center
Sun 12:59:21 PM 40.1531 -85.5831 241° Southwest 394 453 36,000  Level Indianapolis Center
Sun 01:00:22 PM 40.1000 -85.7075 241° Southwest 394 453 36,000  Level Indianapolis Center
Sun 01:01:24 PM 40.0464 -85.8319 241° Southwest 395 455 36,000  Level Indianapolis Center
Sun 01:02:26 PM 39.9928 -85.9575 241° Southwest 397 457 36,000  Level Indianapolis Center
Sun 01:03:28 PM 39.9389 -86.0825 241° Southwest 398 458 36,000  Level Indianapolis Center
Sun 01:04:30 PM 39.8839 -86.2103 241° Southwest 407 468 36,000  Level Indianapolis Center
Sun 01:05:32 PM 39.8208 -86.3533 240° Southwest 417 480 36,000  Level Indianapolis Center
Sun 01:06:33 PM 39.7864 -86.5042 253° West 414 476 36,000  Level Indianapolis Center
Sun 01:07:35 PM 39.7558 -86.6456 254° West 411 473 36,000  Level Indianapolis Center
Sun 01:08:37 PM 39.7261 -86.7858 255° West 406 467 36,000  Level Indianapolis Center
Sun 01:09:39 PM 39.6897 -86.9514 254° West 401 461 36,000  Level Indianapolis Center
Sun 01:10:41 PM 39.6594 -87.0889 254° West 398 458 36,000  Level Indianapolis Center
Sun 01:11:43 PM 39.6289 -87.2264 254° West 398 458 36,000  Level Indianapolis Center
Sun 01:12:45 PM 39.5997 -87.3647 255° West 397 457 36,000  Level Indianapolis Center
Sun 01:13:46 PM 39.5672 -87.5061 253° West 408 470 36,000 -341 Level Indianapolis Center
Sun 01:14:48 PM 39.5339 -87.6544 254° West 427 491 35,300 -1,258 Descending Indianapolis Center
Sun 01:15:50 PM 39.4803 -87.7894 243° Southwest 429 494 33,400 -2,081 Descending Indianapolis Center
Sun 01:16:52 PM 39.3700 -87.9083 220° Southwest 430 495 31,000 -2,098 Descending Indianapolis Center
Sun 01:17:53 PM 39.2803 -88.0086 221° Southwest 428 493 29,100 -1,463 Descending Indianapolis Center
Sun 01:18:55 PM 39.1875 -88.1158 222° Southwest 433 498 28,000 -641 Descending Indianapolis Center
Sun 01:19:36 PM 39.1292 -88.1833 222° Southwest 446 513 28,000  Level Kansas City Center
Sun 01:20:38 PM 39.0258 -88.3189 226° Southwest 446 513 28,000  Level Kansas City Center
Sun 01:21:40 PM 39.0039 -88.4731 260° West 439 505 28,000 -48 Level Kansas City Center
Sun 01:22:42 PM 38.9953 -88.6306 266° West 441 507 27,900 -484 Descending Kansas City Center
Sun 01:23:44 PM 38.9839 -88.7669 264° West 441 507 27,000 -1,016 Descending Kansas City Center
Sun 01:24:46 PM 38.9742 -88.9453 266° West 423 487 25,800 -1,065 Descending Kansas City Center
Sun 01:25:48 PM 38.9661 -89.1019 266° West 416 479 24,800 -878 Descending Kansas City Center
Sun 01:26:49 PM 38.9547 -89.2511 264° West 420 483 24,000 -390 Descending Kansas City Center
Sun 01:27:51 PM 38.9436 -89.4089 265° West 415 478 24,000  Level Kansas City Center
Sun 01:28:53 PM 38.9331 -89.5525 265° West 408 470 24,000  Level Kansas City Center
Sun 01:29:55 PM 38.9228 -89.7042 265° West 401 461 24,000  Level Kansas City Center
Sun 01:30:57 PM 38.9114 -89.8408 264° West 395 455 24,000  Level Kansas City Center
Sun 01:31:59 PM 38.9003 -89.9775 264° West 389 448 24,000  Level Kansas City Center
Sun 01:33:01 PM 38.8922 -90.1064 265° West 386 444 24,000  Level Kansas City Center
Sun 01:34:03 PM 38.8817 -90.2461 265° West 390 449 24,000  Level Kansas City Center
Sun 01:35:04 PM 38.8692 -90.4133 265° West 392 451 24,000  Level Kansas City Center
Sun 01:36:06 PM 38.8578 -90.5525 264° West 392 451 24,000  Level Kansas City Center
Sun 01:37:08 PM 38.8519 -90.6883 267° West 390 449 24,000  Level Kansas City Center
Sun 01:38:10 PM 38.8475 -90.8336 268° West 399 459 24,000  Level Kansas City Center
Sun 01:39:12 PM 38.8436 -90.9725 268° West 397 457 24,000  Level Kansas City Center
Sun 01:40:14 PM 38.8383 -91.1156 267° West 401 461 24,000  Level Kansas City Center
Sun 01:41:16 PM 38.8319 -91.2864 267° West 402 463 24,000  Level Kansas City Center
Sun 01:42:17 PM 38.8258 -91.4283 267° West 401 461 24,000  Level Kansas City Center
Sun 01:43:19 PM 38.8194 -91.5708 267° West 403 464 24,000  Level Kansas City Center
Sun 01:44:21 PM 38.8128 -91.7200 267° West 401 461 24,000  Level Kansas City Center
Sun 01:45:23 PM 38.8058 -91.8631 266° West 403 464 24,000  Level Kansas City Center
Sun 01:46:25 PM 38.8006 -92.0056 267° West 402 463 24,000  Level Kansas City Center
Sun 01:47:27 PM 38.7928 -92.1486 266° West 404 465 24,000  Level Kansas City Center
Sun 01:48:28 PM 38.7842 -92.3200 266° West 403 464 24,000  Level Kansas City Center
Sun 01:49:30 PM 38.7764 -92.4628 266° West 403 464 24,000  Level Kansas City Center
Sun 01:50:32 PM 38.7694 -92.6053 266° West 403 464 24,000  Level Kansas City Center
Sun 01:51:34 PM 38.7619 -92.7489 266° West 403 464 24,000 -48 Level Kansas City Center
Sun 01:52:36 PM 38.7542 -92.8917 266° West 403 464 23,900 -537 Descending Kansas City Center
Sun 01:53:37 PM 38.7456 -93.0369 266° West 406 467 22,900 -927 Descending Kansas City Center
Sun 01:54:39 PM 38.7439 -93.1844 269° West 416 479 22,000 -435 Descending Kansas City Center
Sun 01:55:41 PM 38.7600 -93.3517 277° West 404 465 22,000  Level Kansas City Center
Sun 01:56:43 PM 38.7717 -93.4900 276° West 396 456 22,000  Level Kansas City Center
Sun 01:57:44 PM 38.7847 -93.6275 277° West 393 452 22,000 -146 Level Kansas City Center
Sun 01:58:46 PM 38.7989 -93.7711 277° West 389 448 21,700 -1,065 Descending Kansas City Center
Sun 01:59:48 PM 38.8103 -93.9064 276° West 397 457 19,800 -2,000 Descending Kansas City Center
Sun 02:00:49 PM 38.8219 -94.0581 276° West 381 438 17,600 -2,098 Descending Kansas City Center
Sun 02:01:51 PM 38.8333 -94.1786 277° West 359 413 15,500 -2,032 Descending Kansas City Center
Sun 02:02:53 PM 38.8686 -94.2839 293° West 349 402 13,400 -1,645 Descending Kansas City Center
Sun 02:03:55 PM 38.9519 -94.3736 320° Northwest 348 400 12,100 -1,073 Descending Kansas City Center
Sun 02:04:56 PM 39.0156 -94.4431 320° Northwest 315 362 11,200 -1,220 Descending Kansas City Center
Sun 02:05:58 PM 39.0828 -94.5156 320° Northwest 284 327 9,600 -1,268 Descending Kansas City Center
Sun 02:06:59 PM 39.1369 -94.5750 320° Northwest 271 312 8,600 -927 Descending Kansas City Center
Sun 02:08:01 PM 39.2022 -94.6089 338° Northwest 252 290 7,700 -871 Descending Kansas City Center
Sun 02:09:03 PM 39.2658 -94.5739 23° Northeast 260 299 6,800 -976 Descending Kansas City Center
Sun 02:10:04 PM 39.3453 -94.5467 15° North 266 306 5,700 -976 Descending Kansas City Center
Sun 02:11:06 PM 39.4106 -94.5244 15° North 257 296 4,800 -919 Descending Kansas City Center
Sun 02:12:08 PM 39.4633 -94.5461 342° North 241 277 3,800 -878 Descending Kansas City Center
Sun 02:13:09 PM 39.4681 -94.6328 274° West 221 254 3,000 -787 Descending Kansas City Center

Login

Don't have an account? Register now (free) for customized features, flight alerts, and more!